Terminal Aerodrome Forecast
Issued by NWS

Home | Current Version | Previous Version | Text Only | Print | Product List | Glossary On
Versions: 1 2 3 4 5 6 7 8 9 10 11 12 13 14 15 16 17 18 19 20 21 22 23 24 25 26 27 28 29 30 31
000
FTUS45 KGJT 120520
TAFCNY
TAF
KCNY 120520Z 1206/1306 31010KT P6SM FEW110 SCT200
     FM120900 VRB03KT P6SM SCT200
     FM121900 33007KT P6SM SCT100 SCT200
     FM130200 02008KT P6SM FEW110 SCT200=

USA.gov is the U.S. government's official web portal to all federal, state and local government web resources and services.